createdAt,value
2022-11-12T00:01:14.674Z,9.34
2022-11-12T00:04:00.673Z,9.27
2022-11-12T00:06:46.679Z,9.28
2022-11-12T00:09:32.760Z,9.25
2022-11-12T00:12:18.770Z,9.48
2022-11-12T00:15:05.461Z,9.35
2022-11-12T00:18:10.064Z,9.50
2022-11-12T00:20:56.033Z,9.44
2022-11-12T00:23:41.776Z,9.46
2022-11-12T00:26:27.517Z,9.39
2022-11-12T00:29:13.155Z,9.27
2022-11-12T00:31:59.064Z,9.22
2022-11-12T00:34:45.144Z,9.18
2022-11-12T00:37:31.238Z,9.20
2022-11-12T00:40:17.416Z,9.26
2022-11-12T00:43:03.550Z,9.26
2022-11-12T00:45:49.136Z,9.19
2022-11-12T00:48:34.745Z,9.19
2022-11-12T00:51:20.216Z,9.34
2022-11-12T00:54:06.320Z,9.35
2022-11-12T00:56:52.444Z,9.44
2022-11-12T00:59:38.522Z,9.25
2022-11-12T01:02:24.313Z,9.16
2022-11-12T01:05:10.246Z,9.14
2022-11-12T01:07:56.287Z,9.27
2022-11-12T01:10:42.051Z,9.38
2022-11-12T01:13:27.922Z,9.29
2022-11-12T01:16:22.612Z,9.23
2022-11-12T01:19:11.225Z,9.12
2022-11-12T01:21:57.041Z,9.03
2022-11-12T01:24:42.816Z,9.29
2022-11-12T01:27:28.421Z,9.34
2022-11-12T01:30:14.489Z,9.39
2022-11-12T01:33:00.387Z,9.13
2022-11-12T01:35:46.564Z,8.96
2022-11-12T01:38:37.790Z,8.97
2022-11-12T01:41:26.297Z,8.81
2022-11-12T01:44:24.871Z,8.74
2022-11-12T01:47:21.619Z,8.92
2022-11-12T01:50:17.344Z,8.98
2022-11-12T01:53:08.250Z,8.95
2022-11-12T01:55:56.320Z,8.84
2022-11-12T01:58:43.446Z,8.79
2022-11-12T02:01:29.190Z,8.53
2022-11-12T02:04:15.437Z,8.43
2022-11-12T02:07:02.984Z,8.47
2022-11-12T02:09:48.707Z,8.47
2022-11-12T02:12:53.737Z,8.58
2022-11-12T02:15:41.472Z,8.72
2022-11-12T02:18:27.597Z,8.70
2022-11-12T02:21:13.865Z,8.71
2022-11-12T02:24:25.886Z,8.70
2022-11-12T02:27:12.507Z,8.75
2022-11-12T02:29:58.097Z,8.58
2022-11-12T02:32:43.888Z,8.47
2022-11-12T02:35:30.500Z,8.59
2022-11-12T02:38:16.550Z,8.55
2022-11-12T02:41:02.793Z,8.33
2022-11-12T02:43:48.695Z,8.40
2022-11-12T02:46:34.662Z,8.46
2022-11-12T02:49:20.625Z,8.51
2022-11-12T02:52:08.364Z,8.50
2022-11-12T02:54:54.388Z,8.30
2022-11-12T02:57:40.813Z,8.40
2022-11-12T03:00:26.683Z,8.40
2022-11-12T03:03:12.497Z,8.29
2022-11-12T03:06:00.555Z,8.37
2022-11-12T03:08:46.188Z,8.47
2022-11-12T03:11:32.140Z,8.56
2022-11-12T03:14:18.296Z,8.44
2022-11-12T03:17:04.230Z,8.51
2022-11-12T03:19:49.996Z,8.62
2022-11-12T03:22:36.743Z,8.52
2022-11-12T03:25:22.973Z,8.42
2022-11-12T03:28:12.214Z,8.56
2022-11-12T03:30:59.937Z,8.64
2022-11-12T03:33:45.704Z,8.52
2022-11-12T03:36:31.980Z,8.64
2022-11-12T03:39:17.571Z,8.57
2022-11-12T03:42:03.758Z,8.73
2022-11-12T03:44:49.777Z,8.63
2022-11-12T03:47:35.872Z,8.55
2022-11-12T03:50:25.035Z,8.48
2022-11-12T03:53:11.146Z,8.31
2022-11-12T03:55:56.734Z,8.17
2022-11-12T03:58:42.535Z,8.21
2022-11-12T04:01:28.228Z,8.23
2022-11-12T04:04:14.137Z,8.35
2022-11-12T04:07:18.177Z,8.18
2022-11-12T04:10:04.478Z,8.26
2022-11-12T04:13:08.841Z,8.30
2022-11-12T04:16:22.310Z,8.39
2022-11-12T04:19:30.874Z,8.51
2022-11-12T04:22:16.769Z,8.42
2022-11-12T04:25:20.785Z,8.54
2022-11-12T04:28:06.728Z,8.36
2022-11-12T04:30:52.292Z,8.26
2022-11-12T04:33:38.299Z,8.04
2022-11-12T04:36:24.301Z,7.81
2022-11-12T04:39:10.313Z,7.88
2022-11-12T04:42:15.101Z,7.87
2022-11-12T04:45:02.394Z,8.00
2022-11-12T04:47:48.407Z,8.05
2022-11-12T04:50:34.245Z,8.09
2022-11-12T04:53:20.644Z,8.18
2022-11-12T04:56:06.758Z,8.13
2022-11-12T04:58:52.614Z,8.13
2022-11-12T05:01:38.319Z,8.25
2022-11-12T05:04:27.655Z,8.13
2022-11-12T05:07:13.763Z,8.22
2022-11-12T05:09:59.941Z,8.37
2022-11-12T05:12:45.742Z,8.29
2022-11-12T05:15:31.691Z,8.26
2022-11-12T05:18:17.495Z,8.26
2022-11-12T05:21:23.762Z,8.22
2022-11-12T05:24:22.409Z,8.30
2022-11-12T05:27:19.394Z,8.19
2022-11-12T05:30:05.761Z,8.24
2022-11-12T05:32:51.435Z,8.26
2022-11-12T05:35:37.343Z,8.23
2022-11-12T05:38:23.388Z,8.25
2022-11-12T05:41:09.309Z,8.27
2022-11-12T05:43:54.950Z,8.25
2022-11-12T05:46:40.694Z,8.18
2022-11-12T05:49:26.527Z,8.12
2022-11-12T05:52:12.348Z,8.07
2022-11-12T05:54:57.884Z,8.11
2022-11-12T05:57:43.505Z,8.11
2022-11-12T06:00:29.376Z,8.17
2022-11-12T06:03:15.007Z,8.12
2022-11-12T06:06:01.168Z,8.21
2022-11-12T06:08:47.240Z,8.17
2022-11-12T06:11:33.764Z,8.27
2022-11-12T06:14:19.432Z,8.16
2022-11-12T06:17:05.321Z,8.24
2022-11-12T06:19:50.953Z,8.33
2022-11-12T06:22:37.718Z,8.45
2022-11-12T06:25:23.593Z,8.40
2022-11-12T06:28:09.228Z,8.36
2022-11-12T06:30:55.165Z,8.49
2022-11-12T06:33:41.163Z,8.46
2022-11-12T06:36:27.117Z,8.52
2022-11-12T06:39:12.960Z,8.34
2022-11-12T06:41:59.117Z,8.30
2022-11-12T06:44:45.080Z,7.99
2022-11-12T06:47:31.004Z,8.08
2022-11-12T06:50:16.875Z,8.04
2022-11-12T06:53:02.999Z,8.04
2022-11-12T06:55:48.780Z,8.12
2022-11-12T06:58:35.287Z,8.19
2022-11-12T07:01:21.062Z,8.32
2022-11-12T07:04:06.993Z,8.38
2022-11-12T07:06:52.888Z,8.38
2022-11-12T07:09:39.049Z,8.50
2022-11-12T07:12:24.873Z,8.57
2022-11-12T07:15:10.923Z,8.50
2022-11-12T07:17:58.025Z,8.46
2022-11-12T07:20:44.026Z,8.54
2022-11-12T07:23:31.151Z,8.55
2022-11-12T07:26:18.423Z,8.63
2022-11-12T07:29:04.577Z,8.75
2022-11-12T07:31:50.269Z,8.82
2022-11-12T07:34:36.042Z,8.94
2022-11-12T07:37:22.366Z,9.07
2022-11-12T07:40:08.534Z,9.10
2022-11-12T07:42:54.410Z,9.19
2022-11-12T07:45:40.382Z,9.08
2022-11-12T07:48:26.734Z,9.17
2022-11-12T07:51:13.313Z,9.36
2022-11-12T07:54:00.131Z,9.33
2022-11-12T07:56:46.041Z,9.47
2022-11-12T07:59:32.295Z,9.50
2022-11-12T08:02:17.979Z,9.49
2022-11-12T08:05:08.538Z,9.48
2022-11-12T08:07:57.823Z,9.59
2022-11-12T08:10:43.681Z,9.66
2022-11-12T08:13:29.597Z,9.56
2022-11-12T08:16:15.841Z,9.55
2022-11-12T08:19:01.998Z,9.79
2022-11-12T08:21:47.647Z,9.87
2022-11-12T08:24:33.547Z,9.98
2022-11-12T08:27:19.378Z,10.07
2022-11-12T08:30:05.807Z,9.98
2022-11-12T08:32:59.727Z,9.95
2022-11-12T08:35:45.697Z,10.04
2022-11-12T08:38:31.620Z,10.08
2022-11-12T08:41:18.026Z,10.23
2022-11-12T08:44:08.328Z,10.20
2022-11-12T08:46:54.607Z,10.31
2022-11-12T08:49:45.142Z,10.34
2022-11-12T08:52:33.719Z,10.26
2022-11-12T08:55:19.481Z,10.35
2022-11-12T08:58:06.469Z,10.44
2022-11-12T09:00:52.902Z,10.48
2022-11-12T09:03:38.656Z,10.41
2022-11-12T09:06:24.561Z,10.38
2022-11-12T09:09:10.828Z,10.37
2022-11-12T09:11:56.764Z,10.24
2022-11-12T09:14:42.482Z,10.30
2022-11-12T09:17:29.274Z,10.21
2022-11-12T09:20:15.087Z,10.33
2022-11-12T09:23:20.919Z,10.43
2022-11-12T09:26:07.128Z,10.56
2022-11-12T09:28:54.889Z,10.63
2022-11-12T09:31:40.783Z,10.64
2022-11-12T09:34:26.652Z,10.72
2022-11-12T09:37:12.436Z,10.66
2022-11-12T09:39:58.007Z,10.79
2022-11-12T09:42:47.776Z,10.79
2022-11-12T09:45:34.328Z,10.84
2022-11-12T09:48:32.614Z,10.87
2022-11-12T09:51:31.101Z,10.99
2022-11-12T09:54:27.255Z,10.89
2022-11-12T09:57:13.349Z,11.02
2022-11-12T09:59:59.320Z,11.01
2022-11-12T10:02:55.363Z,11.10
2022-11-12T10:05:52.716Z,11.17
2022-11-12T10:09:27.611Z,11.29
2022-11-12T10:12:33.561Z,11.43
2022-11-12T10:15:52.453Z,11.48
2022-11-12T10:18:44.224Z,11.59
2022-11-12T10:21:43.039Z,11.67
2022-11-12T10:24:36.499Z,11.71
2022-11-12T10:27:27.497Z,11.82
2022-11-12T10:30:21.919Z,11.86
2022-11-12T10:33:14.048Z,11.82
2022-11-12T10:36:31.585Z,12.18
2022-11-12T10:39:37.310Z,12.15
2022-11-12T10:42:24.013Z,12.13
2022-11-12T10:45:21.079Z,12.06
2022-11-12T10:48:28.760Z,12.12
2022-11-12T10:51:29.559Z,12.25
2022-11-12T10:54:27.319Z,12.38
2022-11-12T10:57:24.265Z,12.47
2022-11-12T11:00:12.679Z,12.58
2022-11-12T11:03:00.397Z,12.57
2022-11-12T11:05:56.343Z,12.61
2022-11-12T11:08:50.519Z,12.71
2022-11-12T11:11:36.388Z,12.79
2022-11-12T11:14:22.147Z,12.78
2022-11-12T11:17:16.675Z,12.85
2022-11-12T11:20:04.846Z,12.87
2022-11-12T11:23:15.313Z,12.81
2022-11-12T11:26:21.393Z,12.88
2022-11-12T11:29:39.584Z,12.95
2022-11-12T11:32:43.509Z,13.01
2022-11-12T11:35:40.626Z,13.01
2022-11-12T11:38:39.135Z,13.03
2022-11-12T11:41:52.810Z,13.05
2022-11-12T11:44:50.904Z,13.04
2022-11-12T11:48:01.167Z,13.10
2022-11-12T11:50:57.041Z,13.13
2022-11-12T11:54:08.549Z,13.18
2022-11-12T11:56:58.694Z,13.22
2022-11-12T11:59:47.031Z,13.28
2022-11-12T12:03:05.212Z,13.25
2022-11-12T12:06:22.348Z,13.29
2022-11-12T12:09:23.724Z,13.32
2022-11-12T12:12:29.662Z,13.33
2022-11-12T12:15:26.409Z,13.26
2022-11-12T12:18:21.196Z,13.33
2022-11-12T12:21:10.774Z,13.34
2022-11-12T12:23:58.595Z,13.35
2022-11-12T12:26:46.958Z,13.26
2022-11-12T12:29:40.901Z,13.32
2022-11-12T12:32:35.139Z,13.29
2022-11-12T12:35:33.005Z,13.35
2022-11-12T12:38:37.531Z,13.37
2022-11-12T12:41:32.815Z,13.38
2022-11-12T12:44:18.489Z,13.38
2022-11-12T12:47:04.629Z,13.36
2022-11-12T12:49:51.740Z,13.44
2022-11-12T12:53:16.142Z,13.53
2022-11-12T12:56:07.228Z,13.50
2022-11-12T12:58:53.487Z,13.43
2022-11-12T13:01:39.441Z,13.49
2022-11-12T13:04:50.381Z,13.52
2022-11-12T13:07:46.341Z,13.51
2022-11-12T13:10:47.450Z,13.52
2022-11-12T13:13:38.586Z,13.50
2022-11-12T13:16:52.329Z,13.56
2022-11-12T13:19:54.402Z,13.48
2022-11-12T13:22:40.106Z,13.64
2022-11-12T13:25:31.834Z,13.56
2022-11-12T13:28:17.834Z,13.23
2022-11-12T13:31:04.541Z,13.34
2022-11-12T13:33:50.290Z,13.29
2022-11-12T13:36:36.192Z,13.11
2022-11-12T13:39:24.201Z,13.26
2022-11-12T13:42:34.661Z,13.19
2022-11-12T13:45:27.159Z,13.11
2022-11-12T13:48:25.034Z,13.18
2022-11-12T13:51:31.294Z,13.10
2022-11-12T13:54:43.481Z,13.18
2022-11-12T13:57:31.953Z,13.12
2022-11-12T14:00:18.017Z,13.10
2022-11-12T14:03:06.416Z,13.02
2022-11-12T14:05:53.084Z,12.96
2022-11-12T14:09:01.908Z,13.07
2022-11-12T14:12:04.741Z,13.09
2022-11-12T14:15:03.767Z,13.11
2022-11-12T14:18:11.239Z,13.00
2022-11-12T14:20:56.901Z,12.90
2022-11-12T14:23:47.232Z,12.96
2022-11-12T14:26:39.459Z,12.93
2022-11-12T14:29:27.674Z,13.03
2022-11-12T14:32:18.488Z,12.98
2022-11-12T14:35:34.057Z,12.97
2022-11-12T14:38:44.189Z,13.00
2022-11-12T14:41:38.879Z,12.97
2022-11-12T14:44:38.147Z,13.02
2022-11-12T14:47:24.288Z,13.05
2022-11-12T14:50:34.558Z,12.94
2022-11-12T14:53:29.802Z,12.89
2022-11-12T14:56:35.627Z,12.88
2022-11-12T14:59:22.144Z,12.84
2022-11-12T15:05:24.990Z,12.81
2022-11-12T15:08:12.315Z,12.82
2022-11-12T15:11:34.046Z,12.76
2022-11-12T15:14:24.689Z,12.81
2022-11-12T15:17:31.847Z,12.85
2022-11-12T15:20:19.806Z,12.80
2022-11-12T15:23:05.932Z,12.84
2022-11-12T15:25:59.141Z,12.83
2022-11-12T15:29:10.291Z,12.81
2022-11-12T15:31:55.848Z,12.74
2022-11-12T15:34:46.200Z,12.69
2022-11-12T15:37:40.573Z,12.70
2022-11-12T15:40:26.661Z,12.71
2022-11-12T15:43:24.141Z,12.61
2022-11-12T15:46:17.751Z,12.56
2022-11-12T15:49:11.165Z,12.47
2022-11-12T15:51:57.379Z,12.49
2022-11-12T15:54:42.961Z,12.46
2022-11-12T15:57:31.696Z,12.33
2022-11-12T16:00:22.932Z,12.33
2022-11-12T16:03:22.355Z,12.40
2022-11-12T16:06:12.066Z,12.40
2022-11-12T16:08:57.947Z,12.39
2022-11-12T16:11:43.750Z,12.35
2022-11-12T16:14:29.501Z,12.28
2022-11-12T16:17:17.560Z,12.20
2022-11-12T16:20:12.606Z,12.16
2022-11-12T16:22:58.826Z,12.00
2022-11-12T16:25:45.583Z,11.96
2022-11-12T16:28:31.242Z,12.06
2022-11-12T16:31:16.856Z,12.03
2022-11-12T16:34:02.746Z,11.93
2022-11-12T16:36:48.516Z,12.10
2022-11-12T16:39:34.399Z,12.11
2022-11-12T16:42:21.646Z,12.05
2022-11-12T16:45:08.108Z,12.06
2022-11-12T16:47:56.229Z,11.98
2022-11-12T16:50:42.421Z,12.03
2022-11-12T16:53:28.216Z,12.01
2022-11-12T16:56:18.227Z,12.02
2022-11-12T16:59:04.670Z,12.00
2022-11-12T17:01:50.360Z,11.98
2022-11-12T17:04:36.141Z,11.95
2022-11-12T17:07:22.421Z,11.95
2022-11-12T17:10:08.958Z,11.90
2022-11-12T17:12:55.831Z,11.86
2022-11-12T17:15:41.649Z,11.83
2022-11-12T17:18:27.755Z,11.82
2022-11-12T17:21:16.842Z,11.80
2022-11-12T17:24:03.210Z,11.85
2022-11-12T17:26:49.042Z,11.84
2022-11-12T17:29:35.056Z,11.78
2022-11-12T17:32:20.950Z,11.78
2022-11-12T17:35:07.434Z,11.72
2022-11-12T17:37:53.371Z,11.66
2022-11-12T17:40:39.697Z,11.51
2022-11-12T17:43:26.249Z,11.48
2022-11-12T17:46:14.878Z,11.42
2022-11-12T17:49:00.986Z,11.45
2022-11-12T17:51:46.877Z,11.49
2022-11-12T17:54:33.009Z,11.41
2022-11-12T17:57:19.115Z,11.30
2022-11-12T18:00:05.678Z,11.36
2022-11-12T18:02:52.044Z,11.34
2022-11-12T18:05:38.220Z,11.31
2022-11-12T18:08:24.275Z,11.30
2022-11-12T18:11:11.352Z,11.34
2022-11-12T18:13:57.467Z,11.33
2022-11-12T18:16:43.315Z,11.34
2022-11-12T18:19:29.010Z,11.31
2022-11-12T18:22:15.329Z,11.28
2022-11-12T18:25:01.122Z,11.30
2022-11-12T18:27:47.151Z,11.27
2022-11-12T18:30:34.143Z,11.16
2022-11-12T18:33:20.282Z,11.06
2022-11-12T18:36:12.251Z,11.00
2022-11-12T18:38:57.861Z,10.98
2022-11-12T18:41:43.817Z,11.11
2022-11-12T18:44:30.001Z,11.18
2022-11-12T18:47:15.937Z,11.17
2022-11-12T18:50:05.666Z,11.11
2022-11-12T18:52:54.746Z,11.15
2022-11-12T18:55:40.803Z,11.25
2022-11-12T18:58:33.602Z,11.17
2022-11-12T19:01:22.741Z,11.14
2022-11-12T19:04:11.043Z,11.07
2022-11-12T19:06:56.839Z,11.13
2022-11-12T19:09:43.250Z,11.18
2022-11-12T19:12:28.982Z,11.22
2022-11-12T19:15:14.934Z,11.28
2022-11-12T19:18:01.641Z,11.21
2022-11-12T19:20:48.728Z,11.23
2022-11-12T19:23:34.889Z,11.25
2022-11-12T19:26:21.891Z,11.28
2022-11-12T19:29:07.470Z,11.29
2022-11-12T19:31:53.365Z,11.36
2022-11-12T19:34:38.976Z,11.50
2022-11-12T19:37:33.385Z,11.56
2022-11-12T19:40:20.104Z,11.44
2022-11-12T19:43:06.178Z,11.39
2022-11-12T19:45:52.006Z,11.43
2022-11-12T19:48:38.318Z,11.44
2022-11-12T19:51:24.559Z,11.44
2022-11-12T19:54:11.156Z,11.49
2022-11-12T19:56:57.184Z,11.49
2022-11-12T19:59:42.883Z,11.54
2022-11-12T20:02:29.087Z,11.50
2022-11-12T20:05:15.221Z,11.59
2022-11-12T20:08:01.150Z,11.59
2022-11-12T20:10:47.281Z,11.63
2022-11-12T20:13:33.647Z,11.67
2022-11-12T20:16:24.908Z,11.58
2022-11-12T20:19:36.546Z,11.43
2022-11-12T20:22:22.360Z,11.42
2022-11-12T20:25:08.380Z,11.43
2022-11-12T20:27:54.294Z,11.38
2022-11-12T20:30:39.877Z,11.38
2022-11-12T20:33:25.704Z,11.33
2022-11-12T20:36:14.875Z,11.38
2022-11-12T20:39:01.060Z,11.35
2022-11-12T20:41:48.555Z,11.33
2022-11-12T20:44:34.372Z,11.36
2022-11-12T20:47:20.377Z,11.28
2022-11-12T20:50:06.551Z,11.38
2022-11-12T20:52:52.401Z,11.21
2022-11-12T20:55:38.136Z,11.15
2022-11-12T20:58:24.773Z,11.21
2022-11-12T21:01:15.443Z,11.15
2022-11-12T21:04:01.430Z,11.14
2022-11-12T21:06:47.147Z,11.08
2022-11-12T21:09:33.832Z,11.06
2022-11-12T21:12:19.882Z,11.20
2022-11-12T21:15:06.042Z,11.21
2022-11-12T21:17:52.685Z,11.14
2022-11-12T21:20:39.105Z,11.09
2022-11-12T21:23:25.093Z,11.12
2022-11-12T21:26:19.479Z,11.17
2022-11-12T21:29:05.399Z,11.21
2022-11-12T21:31:51.453Z,11.21
2022-11-12T21:34:37.507Z,11.33
2022-11-12T21:37:27.639Z,11.29
2022-11-12T21:40:13.958Z,11.30
2022-11-12T21:43:00.253Z,11.29
2022-11-12T21:45:50.619Z,11.31
2022-11-12T21:48:39.495Z,11.33
2022-11-12T21:51:27.748Z,11.27
2022-11-12T21:54:14.529Z,11.30
2022-11-12T21:57:00.362Z,11.16
2022-11-12T21:59:46.629Z,11.18
2022-11-12T22:02:32.502Z,11.05
2022-11-12T22:05:18.818Z,11.07
2022-11-12T22:08:04.947Z,11.07
2022-11-12T22:10:50.870Z,11.07
2022-11-12T22:13:37.497Z,10.93
2022-11-12T22:16:25.746Z,10.96
2022-11-12T22:19:14.032Z,11.02
2022-11-12T22:22:00.249Z,10.91
2022-11-12T22:24:46.016Z,10.94
2022-11-12T22:27:33.824Z,11.00
2022-11-12T22:30:19.728Z,11.03
2022-11-12T22:33:05.433Z,11.13
2022-11-12T22:35:54.897Z,11.11
2022-11-12T22:38:45.939Z,11.13
2022-11-12T22:41:32.664Z,10.85
2022-11-12T22:44:23.012Z,10.96
2022-11-12T22:47:09.371Z,11.04
2022-11-12T22:49:55.444Z,10.97
2022-11-12T22:52:49.884Z,10.94
2022-11-12T22:55:36.221Z,10.99
2022-11-12T22:58:22.546Z,10.96
2022-11-12T23:01:20.917Z,11.05
2022-11-12T23:04:07.936Z,11.07
2022-11-12T23:06:54.141Z,11.06
2022-11-12T23:09:40.125Z,11.01
2022-11-12T23:12:29.614Z,11.06
2022-11-12T23:15:15.373Z,11.04
2022-11-12T23:18:01.861Z,11.08
2022-11-12T23:20:47.926Z,11.13
2022-11-12T23:23:33.820Z,11.21
2022-11-12T23:26:22.349Z,11.17
2022-11-12T23:29:11.306Z,11.05
2022-11-12T23:31:57.246Z,11.17
2022-11-12T23:34:42.922Z,11.08
2022-11-12T23:37:28.690Z,11.09
2022-11-12T23:40:14.956Z,11.02
2022-11-12T23:43:01.003Z,11.06
2022-11-12T23:45:48.669Z,11.10
2022-11-12T23:48:34.335Z,11.09
2022-11-12T23:51:22.048Z,11.12
2022-11-12T23:54:10.054Z,11.10
2022-11-12T23:56:56.065Z,11.12
2022-11-12T23:59:42.108Z,11.08
